Etihad Airways Virtual Airport Information Service

Jeddah King Abdulaziz International Airport

ICAO: OEJN Country: Saudi Arabia
Latitude: 21.6796 Longitude: 39.1565
Latest Arrival : SVA705 (OPKC-OEJN) Latest Departure : SVA3510 (2) (OEJN-OPLA)


WX CaptureLIVE
Data provided by noaa.gov | Recorded at 23:03:54

METAR : OEJN 192200Z 04004KT CAVOK 32/24 Q1004 NOSIG

TAF : OEJN 191700Z 1918/2024 36006KT 7000 FEW040 SCT100 BECMG 2006/2008 24015KT


Runway Data for OEJN
Data provided by openaviationdata.com

Runway ID Mag Var Hdg Length Elevation Surface ILS Freq ILS Id ILS Slope

Jeddah King Abdulaziz International Airport, Saudi Arabia
Use only for reference purposes